createdAt,value
2023-05-14T00:01:05.473Z,7.63
2023-05-14T00:04:07.957Z,7.35
2023-05-14T00:07:10.364Z,7.55
2023-05-14T00:10:12.641Z,7.40
2023-05-14T00:13:14.922Z,7.30
2023-05-14T00:16:17.210Z,6.95
2023-05-14T00:19:19.465Z,7.68
2023-05-14T00:22:21.762Z,7.18
2023-05-14T00:25:24.153Z,7.70
2023-05-14T00:28:26.447Z,7.40
2023-05-14T00:31:28.729Z,7.00
2023-05-14T00:34:31.393Z,7.22
2023-05-14T00:37:33.813Z,7.47
2023-05-14T00:40:36.275Z,7.15
2023-05-14T00:43:38.691Z,7.60
2023-05-14T00:46:41.159Z,7.25
2023-05-14T00:49:43.814Z,7.38
2023-05-14T00:52:47.024Z,7.57
2023-05-14T00:55:50.388Z,6.80
2023-05-14T00:58:52.599Z,7.40
2023-05-14T01:01:54.952Z,7.20
2023-05-14T01:04:57.726Z,6.28
2023-05-14T01:08:41.909Z,6.78
2023-05-14T01:11:56.542Z,7.20
2023-05-14T01:15:15.375Z,6.73
2023-05-14T01:18:19.729Z,6.32
2023-05-14T01:21:40.942Z,6.88
2023-05-14T01:24:43.383Z,6.45
2023-05-14T01:28:00.732Z,6.30
2023-05-14T01:31:32.272Z,6.80
2023-05-14T01:34:36.399Z,6.50
2023-05-14T01:37:41.404Z,6.45
2023-05-14T01:40:46.746Z,6.85
2023-05-14T01:43:49.482Z,6.95
2023-05-14T01:46:51.823Z,6.67
2023-05-14T01:49:54.123Z,7.00
2023-05-14T01:52:59.214Z,7.18
2023-05-14T01:56:02.951Z,6.90
2023-05-14T01:59:05.315Z,6.75
2023-05-14T02:02:08.017Z,6.97
2023-05-14T02:05:11.900Z,6.60
2023-05-14T02:08:14.117Z,7.07
2023-05-14T02:11:16.389Z,6.70
2023-05-14T02:14:18.645Z,6.95
2023-05-14T02:17:21.175Z,7.17
2023-05-14T02:20:23.576Z,6.88
2023-05-14T02:23:37.897Z,6.35
2023-05-14T02:26:43.663Z,6.68
2023-05-14T02:29:45.939Z,6.60
2023-05-14T02:32:48.351Z,6.43
2023-05-14T02:35:50.587Z,6.50
2023-05-14T02:38:53.358Z,6.10
2023-05-14T02:41:57.474Z,5.90
2023-05-14T02:44:59.840Z,6.00
2023-05-14T02:48:02.348Z,5.97
2023-05-14T02:51:05.761Z,6.38
2023-05-14T02:54:08.207Z,6.20
2023-05-14T02:57:10.524Z,6.20
2023-05-14T03:00:13.316Z,6.57
2023-05-14T03:03:15.985Z,6.20
2023-05-14T03:06:18.634Z,6.00
2023-05-14T03:09:20.932Z,6.65
2023-05-14T03:12:23.371Z,6.65
2023-05-14T03:15:25.822Z,7.90
2023-05-14T03:18:30.650Z,6.77
2023-05-14T03:21:33.233Z,6.13
2023-05-14T03:24:41.057Z,6.10
2023-05-14T03:27:43.339Z,5.82
2023-05-14T03:30:45.652Z,5.90
2023-05-14T03:33:47.953Z,5.60
2023-05-14T03:36:50.687Z,5.20
2023-05-14T03:39:52.911Z,5.63
2023-05-14T03:42:56.069Z,5.50
2023-05-14T03:45:58.987Z,5.50
2023-05-14T03:49:01.602Z,5.30
2023-05-14T03:52:04.260Z,5.43
2023-05-14T03:55:07.051Z,5.25
2023-05-14T03:58:14.336Z,5.80
2023-05-14T04:01:16.944Z,5.10
2023-05-14T04:04:19.252Z,5.57
2023-05-14T04:07:21.586Z,5.43
2023-05-14T04:10:23.993Z,5.20
2023-05-14T04:13:26.464Z,6.13
2023-05-14T04:16:29.846Z,5.32
2023-05-14T04:19:32.128Z,5.17
2023-05-14T04:22:34.372Z,5.03
2023-05-14T04:25:36.617Z,5.45
2023-05-14T04:28:38.851Z,5.35
2023-05-14T04:31:42.210Z,4.97
2023-05-14T04:34:44.685Z,5.63
2023-05-14T04:37:47.146Z,4.68
2023-05-14T04:40:49.359Z,4.95
2023-05-14T04:43:51.718Z,5.10
2023-05-14T04:46:54.040Z,4.90
2023-05-14T04:49:56.272Z,5.30
2023-05-14T04:52:58.615Z,4.50
2023-05-14T04:56:00.891Z,4.50
2023-05-14T04:59:03.127Z,4.70
2023-05-14T05:02:05.393Z,4.72
2023-05-14T05:05:08.761Z,4.90
2023-05-14T05:08:11.548Z,4.40
2023-05-14T05:11:13.930Z,5.00
2023-05-14T05:14:16.338Z,4.90
2023-05-14T05:17:18.611Z,4.35
2023-05-14T05:20:20.997Z,4.70
2023-05-14T05:23:23.329Z,5.13
2023-05-14T05:26:27.240Z,4.53
2023-05-14T05:29:29.532Z,4.70
2023-05-14T05:32:31.933Z,4.63
2023-05-14T05:35:36.744Z,5.50
2023-05-14T05:38:39.006Z,5.00
2023-05-14T05:41:41.288Z,4.72
2023-05-14T05:44:43.513Z,4.72
2023-05-14T05:47:45.903Z,4.63
2023-05-14T05:50:49.521Z,4.47
2023-05-14T05:53:51.791Z,4.65
2023-05-14T05:56:54.059Z,5.00
2023-05-14T05:59:56.369Z,4.95
2023-05-14T06:02:59.330Z,4.53
2023-05-14T06:06:01.593Z,4.87
2023-05-14T06:09:04.765Z,4.65
2023-05-14T06:12:07.474Z,4.85
2023-05-14T06:15:10.080Z,4.70
2023-05-14T06:18:12.394Z,4.47
2023-05-14T06:21:14.633Z,4.70
2023-05-14T06:24:20.431Z,4.88
2023-05-14T06:27:22.955Z,3.88
2023-05-14T06:30:25.460Z,4.63
2023-05-14T06:33:31.353Z,4.80
2023-05-14T06:36:33.731Z,4.63
2023-05-14T06:39:39.237Z,4.82
2023-05-14T06:42:42.317Z,4.10
2023-05-14T06:45:52.151Z,4.60
2023-05-14T06:48:55.667Z,4.93
2023-05-14T06:51:59.041Z,4.97
2023-05-14T06:55:01.320Z,5.40
2023-05-14T06:58:04.133Z,5.57
2023-05-14T07:01:06.622Z,4.90
2023-05-14T07:04:08.972Z,4.82
2023-05-14T07:07:15.365Z,6.07
2023-05-14T07:10:17.795Z,5.40
2023-05-14T07:13:20.131Z,5.10
2023-05-14T07:16:22.477Z,5.20
2023-05-14T07:19:24.729Z,5.78
2023-05-14T13:14:12.781Z,9.70
2023-05-14T13:17:15.328Z,9.40
2023-05-14T13:20:18.439Z,8.95
2023-05-14T13:23:20.845Z,8.60
2023-05-14T13:26:26.560Z,8.73
2023-05-14T13:29:31.741Z,6.78
2023-05-14T13:32:34.094Z,7.57
2023-05-14T13:35:36.462Z,8.50
2023-05-14T13:38:39.347Z,9.00
2023-05-14T13:41:41.906Z,8.90
2023-05-14T13:44:44.188Z,8.25
2023-05-14T13:47:46.533Z,7.95
2023-05-14T13:50:50.121Z,8.02
2023-05-14T13:56:56.848Z,8.48
2023-05-14T13:59:59.151Z,8.45
2023-05-14T14:03:01.474Z,10.48
2023-05-14T14:06:03.838Z,10.52
2023-05-14T14:09:06.164Z,10.43
2023-05-14T14:12:09.112Z,10.20
2023-05-14T14:15:11.724Z,10.88
2023-05-14T14:18:14.017Z,8.43
2023-05-14T14:21:18.405Z,7.65
2023-05-14T14:24:20.836Z,5.80
2023-05-14T14:27:23.086Z,6.65
2023-05-14T14:30:25.436Z,7.35
2023-05-14T14:33:27.730Z,7.55
2023-05-14T14:36:32.290Z,7.60
2023-05-14T14:39:34.588Z,7.63
2023-05-14T14:42:37.807Z,8.93
2023-05-14T14:45:40.215Z,6.15
2023-05-14T14:48:42.569Z,6.72
2023-05-14T14:51:45.022Z,6.93
2023-05-14T14:54:47.333Z,5.33
2023-05-14T14:57:49.583Z,6.20
2023-05-14T15:00:55.567Z,6.35
2023-05-14T15:03:57.890Z,7.03
2023-05-14T15:07:00.849Z,5.75
2023-05-14T15:10:03.233Z,5.23
2023-05-14T15:13:07.459Z,4.38
2023-05-14T15:16:09.874Z,3.45
2023-05-14T15:19:12.247Z,5.07
2023-05-14T15:22:14.753Z,3.75
2023-05-14T15:25:17.041Z,5.40
2023-05-14T15:28:19.307Z,3.33
2023-05-14T15:31:21.730Z,5.45
2023-05-14T15:34:24.214Z,5.47
2023-05-14T15:37:26.893Z,4.88
2023-05-14T15:40:29.610Z,6.00
2023-05-14T15:43:31.960Z,4.65
2023-05-14T15:46:34.544Z,5.68
2023-05-14T15:49:36.840Z,4.43
2023-05-14T15:52:40.664Z,6.55
2023-05-14T15:55:43.191Z,5.20
2023-05-14T15:58:45.511Z,5.40
2023-05-14T16:01:48.023Z,5.65
2023-05-14T16:04:50.347Z,5.75
2023-05-14T16:07:52.678Z,7.53
2023-05-14T16:10:54.912Z,7.43
2023-05-14T16:13:58.476Z,6.70
2023-05-14T16:17:01.872Z,5.60
2023-05-14T16:20:05.057Z,4.95
2023-05-14T16:23:07.402Z,4.45
2023-05-14T16:26:09.736Z,5.53
2023-05-14T16:29:12.371Z,4.10
2023-05-14T16:32:14.694Z,3.45
2023-05-14T16:35:17.119Z,5.18
2023-05-14T16:38:19.338Z,5.03
2023-05-14T16:41:24.172Z,5.53
2023-05-14T16:44:26.450Z,5.65
2023-05-14T16:47:28.713Z,5.28
2023-05-14T16:50:30.997Z,5.68
2023-05-14T16:53:33.265Z,6.03
2023-05-14T16:56:36.660Z,5.23
2023-05-14T16:59:38.932Z,4.75
2023-05-14T17:02:41.712Z,4.05
2023-05-14T17:05:44.249Z,3.30
2023-05-14T17:08:46.595Z,2.80
2023-05-14T17:11:48.830Z,4.83
2023-05-14T17:14:51.294Z,4.82
2023-05-14T17:17:54.268Z,5.18
2023-05-14T17:20:56.621Z,5.07
2023-05-14T17:23:58.984Z,4.80
2023-05-14T17:27:01.252Z,2.50
2023-05-14T17:30:04.076Z,4.80
2023-05-14T17:33:06.444Z,3.53
2023-05-14T17:36:08.809Z,5.35
2023-05-14T17:39:11.136Z,5.60
2023-05-14T17:42:13.391Z,4.93
2023-05-14T17:45:23.825Z,5.30
2023-05-14T17:48:26.409Z,6.43
2023-05-14T17:51:28.846Z,6.90
2023-05-14T17:54:31.162Z,7.80
2023-05-14T17:57:35.336Z,8.03
2023-05-14T18:00:37.730Z,6.88
2023-05-14T18:03:40.158Z,7.30
2023-05-14T18:06:44.125Z,7.47
2023-05-14T18:09:46.670Z,7.50
2023-05-14T18:12:48.962Z,7.33
2023-05-14T18:15:54.212Z,7.72
2023-05-14T18:18:56.754Z,7.47
2023-05-14T18:21:59.060Z,7.93
2023-05-14T18:25:02.602Z,8.65
2023-05-14T18:28:05.557Z,8.23
2023-05-14T18:31:07.933Z,8.48
2023-05-14T18:34:10.450Z,9.40
2023-05-14T18:37:12.828Z,8.70
2023-05-14T18:40:17.698Z,9.00
2023-05-14T18:43:20.909Z,8.40
2023-05-14T18:46:23.878Z,3.90
2023-05-14T18:49:26.311Z,6.40
2023-05-14T18:52:29.121Z,6.70
2023-05-14T18:55:31.455Z,7.55
2023-05-14T18:58:33.743Z,8.27
2023-05-14T19:01:36.401Z,8.30
2023-05-14T19:04:51.236Z,7.32
2023-05-14T19:07:55.054Z,8.23
2023-05-14T19:10:57.415Z,8.52
2023-05-14T19:14:00.141Z,8.17
2023-05-14T19:17:02.836Z,8.25
2023-05-14T19:20:06.417Z,8.48
2023-05-14T19:23:08.716Z,8.77
2023-05-14T19:26:11.108Z,8.80
2023-05-14T19:29:13.594Z,9.03
2023-05-14T19:32:15.848Z,10.57
2023-05-14T19:35:18.096Z,11.30
2023-05-14T19:38:20.973Z,10.88
2023-05-14T19:41:23.264Z,11.50
2023-05-14T19:44:25.795Z,11.83
2023-05-14T19:47:28.844Z,10.15
2023-05-14T19:50:31.139Z,10.10
2023-05-14T19:53:33.503Z,9.88
2023-05-14T19:56:35.956Z,10.00
2023-05-14T19:59:39.308Z,10.37
2023-05-14T20:02:42.072Z,10.20
2023-05-14T20:05:45.329Z,11.18
2023-05-14T20:08:47.794Z,10.90
2023-05-14T20:11:50.189Z,9.50
2023-05-14T20:14:52.451Z,9.47
2023-05-14T20:17:55.023Z,8.27
2023-05-14T20:20:57.305Z,8.07
2023-05-14T20:23:59.639Z,8.85
2023-05-14T20:27:02.067Z,8.90
2023-05-14T20:30:05.027Z,7.87
2023-05-14T20:33:07.480Z,8.43
2023-05-14T20:36:10.030Z,8.88
2023-05-14T20:39:12.245Z,8.25
2023-05-14T20:42:14.541Z,6.95
2023-05-14T20:45:17.117Z,6.57
2023-05-14T20:48:21.425Z,6.47
2023-05-14T20:51:23.785Z,7.32
2023-05-14T20:54:26.184Z,6.22
2023-05-14T20:57:28.479Z,5.75
2023-05-14T21:00:30.816Z,6.47
2023-05-14T21:03:33.276Z,7.35
2023-05-14T21:06:35.833Z,8.32
2023-05-14T21:09:38.102Z,8.88
2023-05-14T21:12:42.075Z,9.23
2023-05-14T21:15:45.125Z,8.23
2023-05-14T21:18:47.464Z,10.05
2023-05-14T21:21:49.820Z,9.90
2023-05-14T21:24:52.080Z,9.60
2023-05-14T21:27:54.408Z,9.70
2023-05-14T21:30:56.839Z,9.90
2023-05-14T21:33:59.057Z,9.75
2023-05-14T21:37:01.448Z,9.98
2023-05-14T21:40:03.802Z,10.48
2023-05-14T21:43:06.332Z,10.15
2023-05-14T21:46:08.733Z,10.53
2023-05-14T21:49:11.020Z,10.25
2023-05-14T21:52:13.343Z,9.52
2023-05-14T21:55:15.817Z,9.25
2023-05-14T21:58:18.113Z,8.60
2023-05-14T22:01:20.387Z,7.83
2023-05-14T22:04:22.723Z,8.15
2023-05-14T22:07:25.161Z,7.72
2023-05-14T22:10:27.462Z,6.97
2023-05-14T22:13:29.993Z,4.25
2023-05-14T22:16:33.083Z,5.97
2023-05-14T22:19:35.455Z,6.00
2023-05-14T22:22:38.094Z,5.85
2023-05-14T22:25:40.380Z,6.10
2023-05-14T22:28:43.706Z,5.78
2023-05-14T22:31:46.111Z,5.90
2023-05-14T22:34:48.421Z,4.88
2023-05-14T22:37:50.744Z,5.10
2023-05-14T22:40:53.042Z,5.80
2023-05-14T22:43:55.454Z,6.28
2023-05-14T22:46:58.121Z,6.27
2023-05-14T22:50:00.469Z,6.13
2023-05-14T22:53:02.739Z,6.10
2023-05-14T22:56:05.672Z,6.15
2023-05-14T22:59:08.033Z,6.07
2023-05-14T23:02:10.461Z,6.20
2023-05-14T23:05:12.872Z,7.40
2023-05-14T23:08:15.326Z,7.03
2023-05-14T23:11:17.647Z,7.30
2023-05-14T23:14:20.012Z,7.40
2023-05-14T23:17:25.474Z,7.90
2023-05-14T23:20:27.765Z,7.95
2023-05-14T23:23:30.104Z,8.43
2023-05-14T23:26:32.744Z,9.32
2023-05-14T23:29:35.062Z,9.85
2023-05-14T23:32:37.338Z,10.13
2023-05-14T23:35:40.733Z,10.75
2023-05-14T23:38:43.219Z,10.23
2023-05-14T23:41:45.510Z,10.60
2023-05-14T23:44:48.134Z,10.50
2023-05-14T23:47:50.647Z,11.37
2023-05-14T23:50:52.995Z,10.52
2023-05-14T23:54:01.144Z,9.75
2023-05-14T23:57:04.048Z,8.82
